Aviation Digital Data Service (ADDS)

Output produced by METARs form (0510 UTC 24 January 2019)
found at http://www.aviationweather.gov/metar/data/
 
Forecast for: NSTU (PAGO PAGO , WS)
Text: NSTU 232343Z 2400/2424 VRB05KT P6SM VCSH SCT018 SCT040 BKN110
Forecast period: 0000 UTC 24 January 2019 to 0000 UTC 25 January 2019
Forecast type: FROM: standard forecast or significant change
Winds: variable direction winds at 6 MPH (5 knots; 2.6 m/s)
Visibility: 6 or more miles 10+ km)
Ceiling: 11000 feet AGL
Clouds: scattered clouds at 1800 feet AGL
scattered clouds at 4000 feet AGL
broken clouds at 11000 feet AGL
Weather: VCSH  (showers in vicinity)